Flight Track Log - Related Links

Times and Time Zones

All times are in EDT time to prevent confusion due to time zone crossing. See the SWA561 flight status page for this flight to view local times or setup timezone preferences in your user account.

Time Position Orientation Groundspeed Altitude Reporting Facility
EDT Latitude Longitude Course Direction KTS MPH feet Rate Location/Type
Sun 08:44:37 PM 31.8014 -106.3981 233° Southwest 165 190 4,700  Level Albuquerque Center
Sun 08:44:52 PM 31.7989 -106.4019 233° Southwest 172 198 5,100 2,211 Climbing Albuquerque Center
Sun 08:45:53 PM 31.7744 -106.4603 244° Southwest 199 229 7,500 2,098 Climbing Albuquerque Center
Sun 08:46:55 PM 31.7797 -106.5333 275° West 265 305 9,400 2,081 Climbing Albuquerque Center
Sun 08:47:57 PM 31.8283 -106.6228 303° West 307 353 11,800 2,683 Climbing Albuquerque Center
Sun 08:48:58 PM 31.8778 -106.7250 300° West 355 409 14,900 3,024 Climbing Albuquerque Center
Sun 08:50:00 PM 31.9275 -106.8267 300° West 358 412 18,000 3,415 Climbing Albuquerque Center
Sun 08:51:01 PM 31.9894 -106.9525 300° West 368 423 21,900 3,073 Climbing Albuquerque Center
Sun 08:52:03 PM 32.0414 -107.0542 301° West 364 419 24,300 2,177 Climbing Albuquerque Center
Sun 08:53:05 PM 32.0961 -107.1586 302° West 369 425 26,400 2,049 Climbing Albuquerque Center
Sun 08:54:06 PM 32.1522 -107.2669 301° West 380 437 28,500 1,951 Climbing Albuquerque Center
Sun 08:55:08 PM 32.2111 -107.3872 300° West 387 445 30,400 1,659 Climbing Albuquerque Center
Sun 08:56:09 PM 32.2547 -107.5033 294° West 390 449 31,900 1,317 Climbing Albuquerque Center
Sun 08:57:11 PM 32.2814 -107.6231 285° West 392 451 33,100 1,258 Climbing Albuquerque Center
Sun 08:58:13 PM 32.3117 -107.7514 286° West 399 459 34,500 1,415 Climbing Albuquerque Center
Sun 08:59:14 PM 32.3431 -107.8775 286° West 400 460 36,000 732 Climbing Albuquerque Center
Sun 09:00:16 PM 32.3733 -107.9992 286° West 390 449 36,000  Level Albuquerque Center
Sun 09:01:17 PM 32.4064 -108.1439 285° West 384 442 36,000  Level Albuquerque Center
Sun 09:02:19 PM 32.4361 -108.2647 286° West 382 440 36,000  Level Albuquerque Center
Sun 09:03:20 PM 32.4669 -108.3858 287° West 386 444 36,000  Level Albuquerque Center
Sun 09:04:22 PM 32.4981 -108.5100 287° West 393 452 36,000  Level Albuquerque Center
Sun 09:05:24 PM 32.5272 -108.6358 285° West 398 458 36,000  Level Albuquerque Center
Sun 09:06:25 PM 32.5575 -108.7614 286° West 399 459 36,000  Level Albuquerque Center
Sun 09:07:27 PM 32.5869 -108.8867 286° West 398 458 36,000  Level Albuquerque Center
Sun 09:08:28 PM 32.6228 -109.0358 286° West 394 453 36,000  Level Albuquerque Center
Sun 09:09:30 PM 32.6517 -109.1603 285° West 392 451 36,000  Level Albuquerque Center
Sun 09:10:31 PM 32.6811 -109.2847 286° West 392 451 36,000  Level Albuquerque Center
Sun 09:11:33 PM 32.7106 -109.4072 286° West 389 448 36,000  Level Albuquerque Center
Sun 09:12:34 PM 32.7383 -109.5308 285° West 390 449 36,000  Level Albuquerque Center
Sun 09:13:36 PM 32.7669 -109.6536 286° West 390 449 36,000  Level Albuquerque Center
Sun 09:14:37 PM 32.7947 -109.7764 285° West 389 448 36,000  Level Albuquerque Center
Sun 09:15:39 PM 32.8286 -109.9236 285° West 389 448 36,000  Level Albuquerque Center
Sun 09:16:40 PM 32.8564 -110.0469 285° West 389 448 36,000  Level Albuquerque Center
Sun 09:17:42 PM 32.8869 -110.1708 286° West 392 451 36,000  Level Albuquerque Center
Sun 09:18:43 PM 32.9142 -110.2919 285° West 384 442 36,000  Level Albuquerque Center
Sun 09:19:45 PM 32.9414 -110.4117 285° West 380 437 36,000  Level Albuquerque Center
Sun 09:20:46 PM 32.9700 -110.5333 286° West 382 440 36,000  Level Albuquerque Center
Sun 09:21:48 PM 33.0058 -110.6525 290° West 385 443 36,000  Level Albuquerque Center
Sun 09:22:49 PM 33.0472 -110.7869 290° West 387 445 36,000  Level Albuquerque Center
Sun 09:23:50 PM 33.0806 -110.9081 288° West 384 442 36,000  Level Albuquerque Center
Sun 09:24:52 PM 33.1158 -111.0286 289° West 384 442 36,000  Level Albuquerque Center
Sun 09:25:53 PM 33.1514 -111.1489 289° West 383 441 36,000  Level Albuquerque Center
Sun 09:26:55 PM 33.1856 -111.2703 289° West 384 442 36,000  Level Albuquerque Center
Sun 09:27:56 PM 33.2192 -111.3922 288° West 386 444 36,000  Level Albuquerque Center
Sun 09:28:57 PM 33.2611 -111.5361 289° West 383 441 36,000  Level Albuquerque Center
Sun 09:29:59 PM 33.2947 -111.6578 288° West 384 442 36,000  Level Albuquerque Center
Sun 09:31:00 PM 33.3289 -111.7789 289° West 385 443 36,000  Level Albuquerque Center
Sun 09:32:02 PM 33.3625 -111.8997 288° West 382 440 36,000  Level Albuquerque Center
Sun 09:33:03 PM 33.3967 -112.0219 289° West 384 442 36,000  Level Albuquerque Center
Sun 09:34:05 PM 33.4294 -112.1439 288° West 384 442 36,000  Level Albuquerque Center
Sun 09:35:06 PM 33.4636 -112.2667 288° West 386 444 36,000  Level Albuquerque Center
Sun 09:36:08 PM 33.4978 -112.3903 288° West 388 447 36,000  Level Albuquerque Center
Sun 09:37:09 PM 33.5317 -112.5139 288° West 389 448 36,000  Level Albuquerque Center
Sun 09:38:11 PM 33.5669 -112.6425 288° West 388 447 36,000  Level Albuquerque Center
Sun 09:39:12 PM 33.5997 -112.7650 288° West 387 445 36,000  Level Albuquerque Center
Sun 09:40:13 PM 33.6325 -112.8858 288° West 385 443 36,000  Level Albuquerque Center
Sun 09:41:15 PM 33.6711 -113.0278 288° West 383 441 36,000  Level Albuquerque Center
Sun 09:42:16 PM 33.7022 -113.1483 287° West 381 438 36,000  Level Albuquerque Center
Sun 09:43:18 PM 33.7350 -113.2700 288° West 381 438 36,000  Level Albuquerque Center
Sun 09:44:19 PM 33.7678 -113.3919 288° West 383 441 36,000  Level Albuquerque Center
Sun 09:45:20 PM 33.7992 -113.5139 287° West 382 440 36,000  Level Albuquerque Center
Sun 09:46:22 PM 33.8325 -113.6364 288° West 384 442 36,000  Level Albuquerque Center
Sun 09:47:23 PM 33.8622 -113.7589 286° West 384 442 36,000  Level Albuquerque Center
Sun 09:48:25 PM 33.8975 -113.9089 286° West 386 444 36,000  Level Albuquerque Center
Sun 09:50:54 PM 33.9372 -114.2153 279° West 389 448 36,000  Level Los Angeles Center
Sun 09:51:56 PM 33.9519 -114.3436 278° West 389 448 36,000  Level Los Angeles Center
Sun 09:52:58 PM 33.9672 -114.4731 278° West 390 449 36,000 -537 Level Los Angeles Center
Sun 09:53:59 PM 33.9850 -114.6278 278° West 387 445 34,900 -933 Descending Los Angeles Center
Sun 09:55:13 PM 34.0003 -114.7544 278° West 384 442 33,900 -926 Descending Los Angeles Center
Sun 09:56:15 PM 34.0172 -114.9119 277° West 394 453 32,800 -1,016 Descending Los Angeles Center
Sun 09:57:17 PM 34.0339 -115.0467 279° West 405 466 31,800 -1,016 Descending Los Angeles Center
Sun 09:58:19 PM 34.0475 -115.1775 277° West 397 457 30,700 -871 Descending Los Angeles Center
Sun 09:59:21 PM 34.0625 -115.3064 278° West 389 448 30,000 -341 Descending Los Angeles Center
Sun 10:00:22 PM 34.0803 -115.4611 278° West 390 449 30,000  Level Los Angeles Center
Sun 10:01:24 PM 34.0928 -115.5889 277° West 387 445 30,000  Level Los Angeles Center
Sun 10:02:26 PM 34.1067 -115.7178 277° West 390 449 30,000  Level Los Angeles Center
Sun 10:03:28 PM 34.1014 -115.8461 267° West 387 445 30,000  Level Los Angeles Center
Sun 10:04:29 PM 34.0822 -115.9717 260° West 384 442 30,000  Level Los Angeles Center
Sun 10:05:31 PM 34.0631 -116.0978 260° West 384 442 30,000 -581 Level Los Angeles Center
Sun 10:06:33 PM 34.0403 -116.2506 260° West 387 445 28,800 -1,065 Descending Los Angeles Center
Sun 10:07:35 PM 34.0256 -116.3769 262° West 382 440 27,800 -976 Descending Los Angeles Center
Sun 10:08:36 PM 34.0150 -116.5003 264° West 374 430 26,800 -1,024 Descending Los Angeles Center
Sun 10:09:38 PM 34.0025 -116.6239 263° West 374 430 25,700 -1,548 Descending Los Angeles Center
Sun 10:10:40 PM 33.9908 -116.7439 263° West 367 422 23,600 -2,032 Descending Los Angeles Center
Sun 10:11:42 PM 33.9797 -116.8606 263° West 356 410 21,500 -2,157 Descending Los Angeles Center
Sun 10:12:09 PM 33.9667 -116.9333 258° West 340 391 20,400 -2,276 Descending Southern California TRACON
Sun 10:13:09 PM 33.9667 -117.0500 270° West 334 384 18,200 -1,700 Descending Southern California TRACON
Sun 10:14:09 PM 33.9500 -117.1500 259° West 329 379 17,000 -850 Descending Southern California TRACON
Sun 10:15:09 PM 33.9333 -117.2667 260° West 325 374 16,500 -1,200 Descending Southern California TRACON
Sun 10:16:09 PM 33.9333 -117.3667 270° West 328 377 14,600 -1,850 Descending Southern California TRACON
Sun 10:17:09 PM 33.9667 -117.4667 292° West 313 360 12,800 -1,550 Descending Southern California TRACON
Sun 10:18:09 PM 34.0000 -117.5500 296° West 307 353 11,500 -1,300 Descending Southern California TRACON
Sun 10:19:09 PM 34.0167 -117.6500 281° West 316 364 10,200 -1,200 Descending Southern California TRACON
Sun 10:20:09 PM 34.0000 -117.7500 259° West 266 306 9,100 -1,150 Descending Southern California TRACON
Sun 10:21:09 PM 33.9833 -117.8333 256° West 265 305 7,900 -1,250 Descending Southern California TRACON
Sun 10:22:09 PM 33.9833 -117.9333 270° West 257 296 6,600 -1,050 Descending Southern California TRACON
Sun 10:23:09 PM 33.9667 -118.0167 256° West 241 277 5,800 -850 Descending Southern California TRACON
Sun 10:24:09 PM 33.9667 -118.0833 270° West 222 255 4,900 -887 Descending Southern California TRACON
Sun 10:25:04 PM 33.9622 -118.1372 264° West 225 259 4,100 -1,138 Descending Los Angeles Center
Sun 10:26:05 PM 33.9539 -118.2200 263° West 213 245 2,700 -1,122 Descending Los Angeles Center
Sun 10:27:07 PM 33.9486 -118.2789 264° West 194 223 1,800 -829 Descending Los Angeles Center
Sun 10:28:08 PM 33.9436 -118.3281 263° West 170 196 1,000 -780 Descending Los Angeles Center
Sun 10:29:10 PM 33.9392 -118.3758 264° West 154 177 200 -435 Descending Los Angeles Center
Sun 10:30:12 PM 33.9342 -118.4225 263° West 152 175 100 -97 Descending Los Angeles Center

Login

Don't have an account? Register now (free) for customized features, flight alerts, and more!